Michipicoten — CFG8060 — position and weather

sailwx.info

Track history (hours):
 
Tides and Currents Weather Stations Pressure Air Temp Water Temp Dewpoint Dewpoint Depression Visibility Wind Speed Wind Dir Waves Ship Positions

Michipicoten

Last reported at 2014-Dec-21 13:19 UTC. Time now 2014-Dec-22 09:12 UTC.
Position N 46°28' W 084°28'.

Length 212 m.

Type: Ship. MMSI: 316002501.

Date/timePositionNaut miles runAvg speedWind from/ knotsBaromVisibWave heightAir tempDewpointWater temp
2014-Dec-21 13:19N 46°28' W 084°28'4 0.6
2014-Dec-21 05:30N 46°31' W 084°23'0 0.0
2014-Dec-21 04:04N 46°31' W 084°23'0 0.0
2014-Dec-21 02:33N 46°31' W 084°23'0 0.0
2014-Dec-21 00:20N 46°31' W 084°23'0 0.0
2014-Dec-20 21:19N 46°31' W 084°23'0 0.0
2014-Dec-20 16:33N 46°31' W 084°22'0 0.0
2014-Dec-20 15:31N 46°31' W 084°22'0 0.1
2014-Dec-20 14:22N 46°31' W 084°23'0 0.0
2014-Dec-20 12:29N 46°31' W 084°23'0 0.0
2014-Dec-20 11:25N 46°31' W 084°23'0 0.0
2014-Dec-20 08:13N 46°31' W 084°22'0 0.0
2014-Dec-20 07:09N 46°31' W 084°23'0 0.0
2014-Dec-20 02:32N 46°31' W 084°23'0 0.0
2014-Dec-19 04:17N 46°31' W 084°23'0 0.0
2014-Dec-19 01:32N 46°31' W 084°23'0 0.0
2014-Dec-19 00:04N 46°31' W 084°23'0 0.0
2014-Dec-18 23:26N 46°31' W 084°23'0 0.0
2014-Dec-18 22:33N 46°31' W 084°23'0 0.0
2014-Dec-18 14:16N 46°31' W 084°23'  
2014-Dec-14 18:07N 46°31' W 084°23'0 0.0
2014-Dec-14 17:33N 46°31' W 084°23'0 0.0
2014-Dec-14 16:24N 46°31' W 084°23'23 7.4
2014-Dec-14 13:17N 46°43' W 084°51'73 1.6
2014-Dec-12 16:25N 46°39' W 086°38'4113.4
2014-Dec-12 13:21N 46°45' W 085°39'1113.3
2014-Dec-12 12:30N 46°47' W 085°22'1313.1
2014-Dec-12 11:31N 46°47' W 085°03'1712.1
2014-Dec-12 10:07N 46°35' W 084°46'1113.4
2014-Dec-12 09:17N 46°28' W 084°34'7 9.0
2014-Dec-12 08:30N 46°30' W 084°24'2 1.6
2014-Dec-12 07:33N 46°31' W 084°23'0 0.0
2014-Dec-12 06:31N 46°31' W 084°23'0 0.0
2014-Dec-12 05:29N 46°31' W 084°23'0 0.0
2014-Dec-12 04:32N 46°31' W 084°23'0 0.0
2014-Dec-12 03:33N 46°31' W 084°23'0 0.0
2014-Dec-12 02:33N 46°31' W 084°23'0 0.0
2014-Dec-12 01:21N 46°31' W 084°23'0 0.0
2014-Dec-12 00:24N 46°31' W 084°23'0 0.0
2014-Dec-11 23:31N 46°31' W 084°23'0 0.0
2014-Dec-11 22:33N 46°31' W 084°23'0 0.0
2014-Dec-11 21:23N 46°31' W 084°23'0 0.0
2014-Dec-11 20:28N 46°31' W 084°23'0 0.0
2014-Dec-11 19:03N 46°31' W 084°23'0 0.0
2014-Dec-11 17:33N 46°31' W 084°23'0 0.0
2014-Dec-11 16:34N 46°31' W 084°23'0 0.0
2014-Dec-11 15:34N 46°31' W 084°23'0 0.0
2014-Dec-11 14:30N 46°31' W 084°23'0 0.0
2014-Dec-11 13:34N 46°31' W 084°23'  
Track history (hours):
 
Tides and Currents Weather Stations Pressure Air Temp Water Temp Dewpoint Dewpoint Depression Visibility Wind Speed Wind Dir Waves Ship Positions

Michipicoten

Last reported at 2014-Dec-21 13:19 UTC. Time now 2014-Dec-22 09:12 UTC.
Position N 46°28' W 084°28'.

Length 212 m.

Type: Ship. MMSI: 316002501.

Date/timePositionNaut miles runAvg speedWind from/ knotsBaromVisibWave heightAir tempDewpointWater temp
2014-Dec-21 13:19N 46°28' W 084°28'4 0.6
2014-Dec-21 05:30N 46°31' W 084°23'0 0.0
2014-Dec-21 04:04N 46°31' W 084°23'0 0.0
2014-Dec-21 02:33N 46°31' W 084°23'0 0.0
2014-Dec-21 00:20N 46°31' W 084°23'0 0.0
2014-Dec-20 21:19N 46°31' W 084°23'0 0.0
2014-Dec-20 16:33N 46°31' W 084°22'0 0.0
2014-Dec-20 15:31N 46°31' W 084°22'0 0.1
2014-Dec-20 14:22N 46°31' W 084°23'0 0.0
2014-Dec-20 12:29N 46°31' W 084°23'0 0.0
2014-Dec-20 11:25N 46°31' W 084°23'0 0.0
2014-Dec-20 08:13N 46°31' W 084°22'0 0.0
2014-Dec-20 07:09N 46°31' W 084°23'0 0.0
2014-Dec-20 02:32N 46°31' W 084°23'0 0.0
2014-Dec-19 04:17N 46°31' W 084°23'0 0.0
2014-Dec-19 01:32N 46°31' W 084°23'0 0.0
2014-Dec-19 00:04N 46°31' W 084°23'0 0.0
2014-Dec-18 23:26N 46°31' W 084°23'0 0.0
2014-Dec-18 22:33N 46°31' W 084°23'0 0.0
2014-Dec-18 14:16N 46°31' W 084°23'  
2014-Dec-14 18:07N 46°31' W 084°23'0 0.0
2014-Dec-14 17:33N 46°31' W 084°23'0 0.0
2014-Dec-14 16:24N 46°31' W 084°23'23 7.4
2014-Dec-14 13:17N 46°43' W 084°51'73 1.6
2014-Dec-12 16:25N 46°39' W 086°38'4113.4
2014-Dec-12 13:21N 46°45' W 085°39'1113.3
2014-Dec-12 12:30N 46°47' W 085°22'1313.1
2014-Dec-12 11:31N 46°47' W 085°03'1712.1
2014-Dec-12 10:07N 46°35' W 084°46'1113.4
2014-Dec-12 09:17N 46°28' W 084°34'7 9.0
2014-Dec-12 08:30N 46°30' W 084°24'2 1.6
2014-Dec-12 07:33N 46°31' W 084°23'0 0.0
2014-Dec-12 06:31N 46°31' W 084°23'0 0.0
2014-Dec-12 05:29N 46°31' W 084°23'0 0.0
2014-Dec-12 04:32N 46°31' W 084°23'0 0.0
2014-Dec-12 03:33N 46°31' W 084°23'0 0.0
2014-Dec-12 02:33N 46°31' W 084°23'0 0.0
2014-Dec-12 01:21N 46°31' W 084°23'0 0.0
2014-Dec-12 00:24N 46°31' W 084°23'0 0.0
2014-Dec-11 23:31N 46°31' W 084°23'0 0.0
2014-Dec-11 22:33N 46°31' W 084°23'0 0.0
2014-Dec-11 21:23N 46°31' W 084°23'0 0.0
2014-Dec-11 20:28N 46°31' W 084°23'0 0.0
2014-Dec-11 19:03N 46°31' W 084°23'0 0.0
2014-Dec-11 17:33N 46°31' W 084°23'0 0.0
2014-Dec-11 16:34N 46°31' W 084°23'0 0.0
2014-Dec-11 15:34N 46°31' W 084°23'0 0.0
2014-Dec-11 14:30N 46°31' W 084°23'0 0.0
2014-Dec-11 13:34N 46°31' W 084°23'  

Dump ship's entire track history